Time;durP1;ratioP1;P1;durP2;ratioP2;P2;SDS_P1;SDS_P2;PMS_P1;PMS_P2;Temp;Humidity;BMP_temperature;BMP_pressure;BME280_temperature;BME280_humidity;BME280_pressure;Samples;Min_cycle;Max_cycle;Signal;HPM_P1;HPM_P2
2022/10/06 00:01:55;;;;;;;;;;;;;;;15.49;65.18;100525.56;4974468;28;20007;-61
2022/10/06 00:04:20;;;;;;;;;;;;;;;15.52;65.82;100520.13;4974102;28;19980;-59
2022/10/06 00:06:45;;;;;;;;;;;;;;;15.55;65.49;100526.22;4974155;28;19918;-61
2022/10/06 00:09:11;;;;;;;;;;;;;;;15.55;65.34;100520.91;4973921;28;19930;-61
2022/10/06 00:11:36;;;;;;;;;;;;;;;15.61;65.10;100520.69;4972872;28;19965;-60
2022/10/06 00:14:02;;;;;;;;;;;;;;;15.52;65.48;100517.50;4973161;28;19918;-61
2022/10/06 00:16:27;;;;;;;;;;;;;;;15.64;65.22;100515.25;4973905;28;19968;-61
2022/10/06 00:18:52;;;;;;;;;;;;;;;15.70;65.02;100515.06;4973404;28;20381;-60
2022/10/06 00:21:18;;;;;;;;;;;;;;;15.71;65.25;100522.06;4974078;28;20254;-61
2022/10/06 00:23:43;;;;;;;;;;;;;;;15.76;64.89;100520.13;4970246;28;19922;-61
2022/10/06 00:26:09;;;;;;;;;;;;;;;15.69;65.28;100522.13;4974114;28;20301;-62
2022/10/06 00:28:34;;;;;;;;;;;;;;;15.58;65.93;100526.09;4977736;28;19976;-61
2022/10/06 00:31:01;;;;;;;;;;;;;;;15.74;65.38;100527.25;4977196;28;19929;-61
2022/10/06 00:33:26;;;;;;;;;;;;;;;15.84;64.72;100525.06;4978147;28;20009;-61
2022/10/06 00:35:56;;;;;;;;;;;;;;;15.84;64.68;100527.72;4977612;28;20024;-61
2022/10/06 00:38:22;;;;;;;;;;;;;;;15.85;64.32;100527.66;4977629;28;19925;-60
2022/10/06 00:40:48;;;;;;;;;;;;;;;15.81;64.84;100528.72;4977725;28;19945;-61
2022/10/06 00:43:32;;;;;;;;;;;;;;;15.83;64.55;100540.09;4976236;28;19922;-60
2022/10/06 00:45:57;;;;;;;;;;;;;;;15.82;65.05;100540.19;4977596;28;19973;-61
2022/10/06 00:48:24;;;;;;;;;;;;;;;15.77;65.15;100532.44;4976356;28;20419;-61
2022/10/06 00:50:55;;;;;;;;;;;;;;;15.80;65.03;100542.91;4976894;28;19926;-61
2022/10/06 00:53:21;;;;;;;;;;;;;;;15.71;65.63;100537.97;4977073;28;19914;-61
2022/10/06 00:55:46;;;;;;;;;;;;;;;15.72;65.71;100535.25;4976248;28;19918;-60
2022/10/06 00:58:12;;;;;;;;;;;;;;;15.77;65.88;100535.94;4977170;28;19929;-61
2022/10/06 01:00:38;;;;;;;;;;;;;;;15.88;65.07;100532.84;4976891;28;19918;-61
2022/10/06 01:03:10;;;;;;;;;;;;;;;15.92;64.81;100539.75;4977560;28;19918;-61
2022/10/06 01:05:40;;;;;;;;;;;;;;;15.88;64.87;100532.84;4977120;28;20388;-61
2022/10/06 01:08:05;;;;;;;;;;;;;;;15.90;64.90;100532.78;4977251;28;19918;-61
2022/10/06 01:10:31;;;;;;;;;;;;;;;15.92;64.58;100525.66;4977062;28;19918;-60
2022/10/06 01:12:56;;;;;;;;;;;;;;;15.90;65.00;100538.94;4976577;28;19929;-60
2022/10/06 01:15:22;;;;;;;;;;;;;;;16.07;64.70;100532.06;4977015;28;20341;-62
2022/10/06 01:17:51;;;;;;;;;;;;;;;15.97;64.59;100523.66;4976610;28;19918;-62
2022/10/06 01:20:17;;;;;;;;;;;;;;;15.97;64.37;100526.31;4977214;28;19929;-60
2022/10/06 01:22:44;;;;;;;;;;;;;;;15.97;64.53;100529.81;4977135;28;19929;-61
2022/10/06 01:25:11;;;;;;;;;;;;;;;15.97;64.73;100523.66;4976190;28;19917;-61
2022/10/06 01:27:38;;;;;;;;;;;;;;;15.92;64.64;100526.50;4976791;28;19934;-59
2022/10/06 01:30:05;;;;;;;;;;;;;;;15.93;64.56;100519.41;4976378;28;19918;-59
2022/10/06 01:32:35;;;;;;;;;;;;;;;15.80;64.74;100529.66;4976670;28;19925;-59
2022/10/06 01:35:00;;;;;;;;;;;;;;;15.74;65.10;100521.94;4976378;28;19933;-61
2022/10/06 01:37:26;;;;;;;;;;;;;;;15.85;65.04;100525.03;4977143;28;19929;-60
2022/10/06 01:39:51;;;;;;;;;;;;;;;15.82;65.20;100525.16;4977179;28;19918;-60
2022/10/06 01:42:16;;;;;;;;;;;;;;;15.95;64.83;100526.34;4975838;28;19922;-61
2022/10/06 01:44:42;;;;;;;;;;;;;;;16.01;64.63;100526.13;4973720;28;20375;-60
2022/10/06 01:47:07;;;;;;;;;;;;;;;15.98;64.28;100515.63;4975548;28;19924;-61
2022/10/06 01:49:33;;;;;;;;;;;;;;;15.95;64.54;100518.41;4976293;28;20004;-59
2022/10/06 01:51:58;;;;;;;;;;;;;;;15.89;64.95;100521.31;4976161;28;20382;-60
2022/10/06 01:54:23;;;;;;;;;;;;;;;15.95;64.46;100528.16;4974572;28;19976;-60
2022/10/06 01:56:49;;;;;;;;;;;;;;;15.85;64.88;100534.75;4976878;28;20297;-60
2022/10/06 01:59:14;;;;;;;;;;;;;;;15.88;64.60;100530.19;4974673;28;19929;-61
2022/10/06 02:01:39;;;;;;;;;;;;;;;15.91;64.64;100534.50;4976210;28;20267;-61
2022/10/06 02:04:05;;;;;;;;;;;;;;;15.93;64.56;100530.88;4975945;28;20350;-60
2022/10/06 02:06:30;;;;;;;;;;;;;;;15.86;65.05;100528.53;4976270;28;20330;-60
2022/10/06 02:08:55;;;;;;;;;;;;;;;15.83;64.87;100531.31;4975811;28;20437;-59
2022/10/06 02:11:21;;;;;;;;;;;;;;;15.89;64.47;100536.38;4975920;28;19922;-60
2022/10/06 02:13:47;;;;;;;;;;;;;;;15.87;64.54;100536.41;4974108;28;19929;-60
2022/10/06 02:16:12;;;;;;;;;;;;;;;15.81;65.12;100528.72;4974696;28;19973;-61
2022/10/06 02:18:38;;;;;;;;;;;;;;;15.83;65.03;100533.94;4976123;28;19921;-61
2022/10/06 02:21:04;;;;;;;;;;;;;;;15.88;64.92;100535.50;4975351;28;19964;-61
2022/10/06 02:23:29;;;;;;;;;;;;;;;15.90;65.06;100540.72;4975054;28;20344;-61
2022/10/06 02:25:58;;;;;;;;;;;;;;;15.87;64.94;100533.75;4975356;28;19925;-61
2022/10/06 02:28:24;;;;;;;;;;;;;;;15.84;65.73;100536.56;4975765;28;19918;-61
2022/10/06 02:30:49;;;;;;;;;;;;;;;15.92;65.19;100530.94;4976058;28;19933;-61
2022/10/06 02:33:14;;;;;;;;;;;;;;;16.01;64.70;100539.34;4975036;28;19954;-59
2022/10/06 02:35:41;;;;;;;;;;;;;;;15.95;65.12;100544.91;4973602;28;19918;-61
2022/10/06 02:38:07;;;;;;;;;;;;;;;15.93;64.88;100543.25;4972647;28;19918;-61
2022/10/06 02:40:32;;;;;;;;;;;;;;;15.96;64.85;100548.44;4974255;28;19922;-61
2022/10/06 02:42:58;;;;;;;;;;;;;;;15.94;65.45;100551.13;4975219;28;19918;-61
2022/10/06 02:45:23;;;;;;;;;;;;;;;16.02;65.07;100543.72;4975205;28;20461;-60
2022/10/06 02:47:48;;;;;;;;;;;;;;;16.06;64.57;100540.97;4974035;28;19929;-61
2022/10/06 02:50:14;;;;;;;;;;;;;;;16.05;64.52;100544.53;4975204;28;19977;-61
2022/10/06 02:52:41;;;;;;;;;;;;;;;16.01;64.81;100542.00;4975303;28;19926;-60
2022/10/06 02:55:07;;;;;;;;;;;;;;;16.03;64.51;100547.25;4971854;28;19918;-61
2022/10/06 02:57:32;;;;;;;;;;;;;;;15.93;64.62;100549.41;4975132;28;19925;-61
2022/10/06 02:59:59;;;;;;;;;;;;;;;15.97;64.98;100561.63;4975866;28;20376;-61
2022/10/06 03:02:24;;;;;;;;;;;;;;;15.87;65.84;100570.00;4974414;28;19997;-61
2022/10/06 03:04:49;;;;;;;;;;;;;;;16.13;64.80;100560.97;4975303;28;20016;-61
2022/10/06 03:07:15;;;;;;;;;;;;;;;16.14;64.93;100560.06;4974979;28;19922;-61
2022/10/06 03:09:40;;;;;;;;;;;;;;;16.17;64.87;100565.22;4974740;28;20290;-61
2022/10/06 03:12:06;;;;;;;;;;;;;;;16.37;64.58;100557.28;4975007;28;19918;-61
2022/10/06 03:14:32;;;;;;;;;;;;;;;16.38;64.93;100555.50;5002594;28;19945;-61
2022/10/06 03:16:57;;;;;;;;;;;;;;;16.58;64.53;100555.50;4973273;28;19929;-60
2022/10/06 03:19:23;;;;;;;;;;;;;;;16.68;63.80;100555.97;4974672;28;19922;-60
2022/10/06 03:21:48;;;;;;;;;;;;;;;16.83;63.26;100567.72;4974341;28;19922;-60
2022/10/06 03:24:14;;;;;;;;;;;;;;;16.61;63.95;100562.47;4974271;28;19922;-60
2022/10/06 03:26:43;;;;;;;;;;;;;;;16.68;63.51;100569.25;4973905;28;20333;-60
2022/10/06 03:29:09;;;;;;;;;;;;;;;16.49;64.21;100575.31;4975009;28;19918;-60
2022/10/06 03:31:35;;;;;;;;;;;;;;;16.51;63.88;100580.56;4974600;28;20009;-61
2022/10/06 03:34:00;;;;;;;;;;;;;;;16.42;64.06;100589.78;4974358;28;20020;-60
2022/10/06 03:36:26;;;;;;;;;;;;;;;16.55;63.75;100581.28;4974025;28;20396;-60
2022/10/06 03:38:52;;;;;;;;;;;;;;;16.65;63.18;100579.97;4975536;28;19918;-61
2022/10/06 03:41:18;;;;;;;;;;;;;;;16.48;64.19;100578.91;4980791;28;20437;-60
2022/10/06 03:43:45;;;;;;;;;;;;;;;16.55;63.75;100589.25;4973445;28;19922;-60
2022/10/06 03:46:11;;;;;;;;;;;;;;;16.34;64.84;100591.03;4974642;28;19918;-60
2022/10/06 03:48:36;;;;;;;;;;;;;;;16.24;65.10;100593.22;4973365;28;19921;-61
2022/10/06 03:51:06;;;;;;;;;;;;;;;16.46;64.22;100598.47;4974640;28;19917;-61
2022/10/06 03:53:32;;;;;;;;;;;;;;;16.48;64.01;100607.22;4973325;28;19953;-61
2022/10/06 03:56:09;;;;;;;;;;;;;;;16.52;64.23;100603.53;4974775;28;20412;-61
2022/10/06 03:58:35;;;;;;;;;;;;;;;16.73;63.82;100613.22;4973230;28;19913;-61
2022/10/06 04:01:05;;;;;;;;;;;;;;;16.82;63.44;100619.94;4974312;28;19965;-62
2022/10/06 04:03:31;;;;;;;;;;;;;;;16.93;63.38;100617.66;4972931;28;20025;-61
2022/10/06 04:05:57;;;;;;;;;;;;;;;17.15;62.56;100622.00;4971118;28;19964;-60
2022/10/06 04:08:23;;;;;;;;;;;;;;;17.13;62.92;100610.63;4972173;28;19930;-60
2022/10/06 04:10:48;;;;;;;;;;;;;;;17.19;62.65;100616.47;4974091;28;19925;-61
2022/10/06 04:13:14;;;;;;;;;;;;;;;17.09;62.90;100622.31;4971757;28;20037;-61
2022/10/06 04:15:40;;;;;;;;;;;;;;;17.19;62.54;100626.25;4974305;28;20362;-61
2022/10/06 04:18:05;;;;;;;;;;;;;;;17.31;62.47;100623.03;4974454;28;20402;-61
2022/10/06 04:20:30;;;;;;;;;;;;;;;17.46;61.92;100622.34;4973594;28;19965;-60
2022/10/06 04:22:56;;;;;;;;;;;;;;;17.49;61.83;100627.50;4974361;28;19929;-62
2022/10/06 04:25:21;;;;;;;;;;;;;;;17.58;61.67;100628.88;4973997;28;20321;-62
2022/10/06 04:27:46;;;;;;;;;;;;;;;17.73;61.19;100630.81;4973944;28;19954;-60
2022/10/06 04:30:12;;;;;;;;;;;;;;;17.62;61.39;100627.78;4974575;28;20285;-61
2022/10/06 04:32:37;;;;;;;;;;;;;;;17.81;61.01;100627.84;4974153;28;20688;-60
2022/10/06 04:35:02;;;;;;;;;;;;;;;17.96;60.41;100629.75;4973531;28;19929;-60
2022/10/06 04:37:28;;;;;;;;;;;;;;;17.76;61.21;100629.00;4974454;28;19925;-60
2022/10/06 04:39:53;;;;;;;;;;;;;;;17.90;60.61;100635.34;4973035;28;20433;-61
2022/10/06 04:42:18;;;;;;;;;;;;;;;17.76;61.02;100643.13;4974029;28;19976;-61
2022/10/06 04:44:44;;;;;;;;;;;;;;;17.90;60.96;100643.31;4973014;28;19922;-60
2022/10/06 04:47:09;;;;;;;;;;;;;;;17.93;60.70;100637.88;4973962;28;20389;-60
2022/10/06 04:49:34;;;;;;;;;;;;;;;17.94;61.01;100636.06;4972569;28;19930;-61
2022/10/06 04:52:00;;;;;;;;;;;;;;;18.12;60.29;100643.16;4973637;28;20014;-61
2022/10/06 04:54:25;;;;;;;;;;;;;;;18.15;60.35;100642.13;4973310;28;19957;-61
2022/10/06 04:56:50;;;;;;;;;;;;;;;18.14;60.25;100643.09;4973555;28;19930;-60
2022/10/06 04:59:16;;;;;;;;;;;;;;;18.04;60.60;100642.69;4973078;28;19950;-60
2022/10/06 05:01:41;;;;;;;;;;;;;;;18.20;60.53;100641.00;4972241;28;19930;-60
2022/10/06 05:04:06;;;;;;;;;;;;;;;18.05;60.72;100648.84;4968861;28;20374;-60
2022/10/06 05:06:33;;;;;;;;;;;;;;;18.00;60.88;100657.06;4973145;28;20374;-61
2022/10/06 05:09:03;;;;;;;;;;;;;;;17.89;61.26;100657.56;4973781;28;20013;-61
2022/10/06 05:11:28;;;;;;;;;;;;;;;18.09;61.09;100663.72;4973879;28;19961;-60
2022/10/06 05:13:56;;;;;;;;;;;;;;;18.00;61.03;100661.53;4973913;28;20310;-61
2022/10/06 05:16:22;;;;;;;;;;;;;;;18.09;60.88;100667.25;4975814;28;19972;-60
2022/10/06 05:18:47;;;;;;;;;;;;;;;18.16;60.97;100665.16;4977259;28;19940;-61
2022/10/06 05:21:17;;;;;;;;;;;;;;;18.14;61.12;100667.00;4975762;28;20388;-60
2022/10/06 05:23:42;;;;;;;;;;;;;;;18.09;60.72;100663.72;4976503;28;20009;-61
2022/10/06 05:26:09;;;;;;;;;;;;;;;18.33;60.54;100661.66;4975762;28;20387;-61
2022/10/06 05:28:35;;;;;;;;;;;;;;;18.19;60.88;100667.66;4975758;28;19918;-61
2022/10/06 05:31:01;;;;;;;;;;;;;;;18.10;61.40;100676.94;4975390;28;19922;-61
2022/10/06 05:33:28;;;;;;;;;;;;;;;18.29;60.70;100682.22;4978054;28;19910;-61
2022/10/06 05:35:55;;;;;;;;;;;;;;;18.15;60.97;100676.72;4976041;28;19940;-61
2022/10/06 05:38:21;;;;;;;;;;;;;;;17.98;61.40;100678.38;4973772;28;19977;-62
2022/10/06 05:40:46;;;;;;;;;;;;;;;18.02;61.47;100681.75;4989013;28;19913;-62
2022/10/06 05:43:12;;;;;;;;;;;;;;;18.05;61.09;100694.91;4995880;28;19949;-61
2022/10/06 05:45:37;;;;;;;;;;;;;;;18.03;61.22;100695.91;4979382;28;19995;-62
2022/10/06 05:48:02;;;;;;;;;;;;;;;18.03;61.47;100696.75;4977730;28;20004;-62
2022/10/06 05:50:28;;;;;;;;;;;;;;;18.08;61.50;100707.22;4977744;28;19937;-62
2022/10/06 05:52:53;;;;;;;;;;;;;;;17.68;63.01;100709.91;4977537;28;19918;-61
2022/10/06 05:55:18;;;;;;;;;;;;;;;17.89;62.27;100713.38;4975721;28;19996;-63
2022/10/06 05:57:44;;;;;;;;;;;;;;;17.95;61.98;100720.19;4974406;28;20393;-60
2022/10/06 06:00:09;;;;;;;;;;;;;;;17.91;61.99;100726.59;4975792;28;19922;-59
2022/10/06 06:02:35;;;;;;;;;;;;;;;18.06;62.31;100730.34;4975405;28;19964;-60
2022/10/06 06:05:00;;;;;;;;;;;;;;;17.98;62.27;100731.56;4980891;28;19976;-61
2022/10/06 06:07:25;;;;;;;;;;;;;;;18.17;61.66;100736.00;4977331;28;19944;-62
2022/10/06 06:09:52;;;;;;;;;;;;;;;18.33;61.09;100736.16;4977159;28;19918;-61
2022/10/06 06:12:17;;;;;;;;;;;;;;;18.30;61.01;100747.78;4977077;28;20041;-61
2022/10/06 06:17:29;;;;;;;;;;;;;;;18.54;60.62;100766.16;4996261;28;19920;-62
2022/10/06 06:19:54;;;;;;;;;;;;;;;18.54;60.35;100777.66;4976762;28;20354;-61
2022/10/06 06:22:20;;;;;;;;;;;;;;;18.61;60.39;100768.44;4976921;28;19925;-61
2022/10/06 06:24:45;;;;;;;;;;;;;;;18.59;60.80;100764.13;4975949;28;19922;-61
2022/10/06 06:27:10;;;;;;;;;;;;;;;18.59;60.72;100777.44;4976710;28;19940;-61
2022/10/06 06:29:36;;;;;;;;;;;;;;;18.72;60.43;100770.63;4976989;28;20269;-61
2022/10/06 06:32:01;;;;;;;;;;;;;;;18.76;60.51;100787.31;4977051;28;20332;-61
2022/10/06 06:34:27;;;;;;;;;;;;;;;18.99;59.87;100788.81;4976631;28;19960;-61
2022/10/06 06:36:55;;;;;;;;;;;;;;;18.76;60.65;100798.81;4976666;28;19918;-61
2022/10/06 06:39:21;;;;;;;;;;;;;;;19.14;59.71;100798.69;4976304;28;19918;-61
2022/10/06 06:41:46;;;;;;;;;;;;;;;19.00;59.96;100807.41;4976476;28;19925;-61
2022/10/06 06:44:12;;;;;;;;;;;;;;;18.87;60.87;100800.94;4976579;28;20396;-61
2022/10/06 06:46:38;;;;;;;;;;;;;;;19.09;60.06;100804.25;4976665;28;19914;-62
2022/10/06 06:49:04;;;;;;;;;;;;;;;19.19;59.79;100805.53;4976535;28;19914;-62
2022/10/06 06:51:32;;;;;;;;;;;;;;;19.47;58.97;100809.47;4976383;28;19922;-62
2022/10/06 06:53:59;;;;;;;;;;;;;;;19.49;59.11;100815.56;4976422;28;20018;-61
2022/10/06 06:56:25;;;;;;;;;;;;;;;19.73;58.57;100813.44;4976107;28;19914;-60
2022/10/06 06:58:50;;;;;;;;;;;;;;;19.87;58.11;100824.25;4976554;28;20377;-61
2022/10/06 07:01:17;;;;;;;;;;;;;;;20.09;57.49;100841.75;4975105;28;19921;-61
2022/10/06 07:03:47;;;;;;;;;;;;;;;19.94;58.10;100833.63;4976223;28;19921;-61
2022/10/06 07:06:13;;;;;;;;;;;;;;;20.50;56.68;100841.31;4976042;28;19914;-61
2022/10/06 07:08:43;;;;;;;;;;;;;;;20.59;56.17;100831.00;4975882;28;19920;-60
2022/10/06 07:11:19;;;;;;;;;;;;;;;20.55;56.23;100837.47;4973667;28;19914;-61
2022/10/06 07:13:45;;;;;;;;;;;;;;;20.17;57.56;100851.06;4976541;28;19917;-62
2022/10/06 07:27:07;;;;;;;;;;;;;;;20.57;56.58;100856.06;4971994;28;19984;-60
2022/10/06 07:29:32;;;;;;;;;;;;;;;21.03;55.70;100867.69;4970221;28;19926;-60
2022/10/06 07:31:59;;;;;;;;;;;;;;;20.84;55.78;100878.53;4972674;28;19921;-59
2022/10/06 07:34:26;;;;;;;;;;;;;;;20.79;55.67;100875.28;5005008;28;19929;-59
2022/10/06 07:36:52;;;;;;;;;;;;;;;20.51;55.95;100880.44;4972887;28;19937;-61
2022/10/06 07:39:18;;;;;;;;;;;;;;;20.61;55.79;100887.81;4970990;28;20064;-58
2022/10/06 07:41:43;;;;;;;;;;;;;;;20.53;55.93;100894.53;4956527;28;20012;-60
2022/10/06 07:44:09;;;;;;;;;;;;;;;20.33;56.47;100888.44;4968472;28;19922;-61
2022/10/06 07:46:39;;;;;;;;;;;;;;;20.64;55.37;100901.00;4975059;28;19922;-61
2022/10/06 07:49:05;;;;;;;;;;;;;;;20.69;55.37;100911.44;4972637;28;19918;-60
2022/10/06 07:51:36;;;;;;;;;;;;;;;20.61;55.60;100913.66;4976142;28;19925;-61
2022/10/06 07:54:05;;;;;;;;;;;;;;;20.43;55.75;100919.03;4970787;28;20429;-61
2022/10/06 07:56:31;;;;;;;;;;;;;;;20.39;55.71;100921.97;4978718;28;19922;-61
2022/10/06 07:58:58;;;;;;;;;;;;;;;20.58;55.67;100924.50;4972700;28;19925;-61
2022/10/06 08:01:25;;;;;;;;;;;;;;;20.82;54.69;100917.81;4967874;28;19937;-63
2022/10/06 08:03:51;;;;;;;;;;;;;;;20.72;55.42;100940.63;4972784;28;20358;-61
2022/10/06 08:06:17;;;;;;;;;;;;;;;21.06;54.12;100930.72;4972766;28;19929;-62
2022/10/06 08:08:44;;;;;;;;;;;;;;;20.58;54.94;100949.38;4973283;28;19926;-62
2022/10/06 08:11:10;;;;;;;;;;;;;;;21.29;53.16;100932.97;4973051;28;19922;-63
2022/10/06 08:13:36;;;;;;;;;;;;;;;21.28;52.47;100925.91;4971958;28;19952;-61
2022/10/06 08:16:05;;;;;;;;;;;;;;;21.31;52.27;100946.25;4971859;28;19922;-63
2022/10/06 08:18:30;;;;;;;;;;;;;;;21.35;52.39;100959.38;4972675;28;19968;-63
2022/10/06 08:20:57;;;;;;;;;;;;;;;21.66;51.45;100957.56;4969281;28;19926;-62
2022/10/06 08:23:22;;;;;;;;;;;;;;;22.02;50.54;100954.56;4972540;28;19949;-62
2022/10/06 08:25:49;;;;;;;;;;;;;;;21.54;50.53;100963.63;4971785;28;20349;-62
2022/10/06 08:28:14;;;;;;;;;;;;;;;21.18;51.85;100970.13;4972843;28;19996;-62
2022/10/06 08:30:39;;;;;;;;;;;;;;;20.76;51.88;100982.25;4972973;28;20386;-63
2022/10/06 08:33:05;;;;;;;;;;;;;;;20.65;52.17;100984.63;4972206;28;20025;-63
2022/10/06 08:35:30;;;;;;;;;;;;;;;20.84;51.87;100985.38;4972746;28;20059;-63
2022/10/06 08:37:56;;;;;;;;;;;;;;;21.13;51.17;100985.56;4972082;28;20337;-63
2022/10/06 08:40:22;;;;;;;;;;;;;;;21.61;50.22;100994.44;4970881;28;20357;-61
2022/10/06 08:42:49;;;;;;;;;;;;;;;22.17;49.15;100990.25;4971684;28;20008;-62
2022/10/06 08:45:22;;;;;;;;;;;;;;;22.49;48.23;101011.50;4973409;28;20024;-62
2022/10/06 08:47:51;;;;;;;;;;;;;;;22.60;46.95;101009.03;4973759;28;19965;-62
2022/10/06 08:50:16;;;;;;;;;;;;;;;22.42;46.41;101004.81;4978032;28;19921;-62
2022/10/06 08:52:45;;;;;;;;;;;;;;;22.52;47.40;101022.91;4978186;28;19929;-62
2022/10/06 08:55:29;;;;;;;;;;;;;;;22.06;47.59;101017.63;4977340;28;20500;-62
2022/10/06 08:58:13;;;;;;;;;;;;;;;21.96;47.03;101035.16;4977609;28;19918;-60
2022/10/06 09:00:38;;;;;;;;;;;;;;;21.61;46.70;101046.09;4972950;28;19922;-63
2022/10/06 09:03:04;;;;;;;;;;;;;;;21.24;47.51;101049.94;4977466;28;20029;-62
2022/10/06 09:05:33;;;;;;;;;;;;;;;20.77;47.68;101066.75;4977656;28;19953;-62
2022/10/06 09:08:11;;;;;;;;;;;;;;;20.37;48.23;101050.13;4974189;28;19927;-63
2022/10/06 09:10:42;;;;;;;;;;;;;;;20.68;48.32;101053.91;4972220;28;19947;-63
2022/10/06 09:13:16;;;;;;;;;;;;;;;20.75;47.95;101065.13;4977192;28;19918;-63
2022/10/06 09:15:49;;;;;;;;;;;;;;;20.70;47.60;101051.13;4977550;28;20018;-63
2022/10/06 09:18:14;;;;;;;;;;;;;;;21.16;47.16;101060.19;4977380;28;19928;-62
2022/10/06 09:20:50;;;;;;;;;;;;;;;20.92;47.16;101078.44;4977355;28;19968;-62
2022/10/06 09:23:16;;;;;;;;;;;;;;;21.16;46.92;101069.06;4972387;28;19933;-62
2022/10/06 09:25:42;;;;;;;;;;;;;;;21.31;47.16;101074.53;4977199;28;20294;-63
2022/10/06 09:28:11;;;;;;;;;;;;;;;21.24;47.06;101078.50;4976915;28;19930;-62
2022/10/06 09:30:36;;;;;;;;;;;;;;;21.70;46.02;101087.47;4977210;28;19918;-62
2022/10/06 09:33:04;;;;;;;;;;;;;;;21.85;45.60;101094.63;4977044;28;19982;-63
2022/10/06 09:35:31;;;;;;;;;;;;;;;22.49;45.10;101091.84;4977113;28;20009;-61
2022/10/06 09:37:58;;;;;;;;;;;;;;;22.70;43.74;101101.28;4976784;28;19941;-63
2022/10/06 09:40:47;;;;;;;;;;;;;;;22.94;43.45;101101.63;4977092;28;19918;-62
2022/10/06 09:43:19;;;;;;;;;;;;;;;22.72;43.27;101118.09;4975931;28;20389;-64
2022/10/06 09:45:44;;;;;;;;;;;;;;;22.79;41.78;101119.47;4976959;28;19929;-62
2022/10/06 09:48:30;;;;;;;;;;;;;;;21.94;41.55;101124.47;4976123;28;19918;-62
2022/10/06 09:51:11;;;;;;;;;;;;;;;21.63;41.45;101136.94;4985260;28;19913;-58
2022/10/06 09:53:40;;;;;;;;;;;;;;;22.34;41.21;101137.34;4957153;29;19914;-63
2022/10/06 09:56:18;;;;;;;;;;;;;;;21.97;41.13;101148.41;4957211;28;20017;-62
2022/10/06 09:58:55;;;;;;;;;;;;;;;21.81;41.50;101159.09;4957956;28;19925;-63
2022/10/06 10:01:25;;;;;;;;;;;;;;;22.28;40.62;101159.09;4956149;29;19918;-60
2022/10/06 10:03:52;;;;;;;;;;;;;;;22.40;40.61;101173.56;4957074;29;19919;-62
2022/10/06 10:06:22;;;;;;;;;;;;;;;22.74;40.49;101175.13;4956928;29;20350;-63
2022/10/06 10:08:47;;;;;;;;;;;;;;;22.41;40.85;101188.69;4958299;28;19961;-63
2022/10/06 10:14:19;;;;;;;;;;;;;;;21.49;40.45;101192.97;4956417;29;19925;-63
2022/10/06 10:16:45;;;;;;;;;;;;;;;21.45;41.24;101204.78;4957809;29;20009;-63
2022/10/06 10:19:23;;;;;;;;;;;;;;;21.60;39.89;101204.81;4956947;29;19991;-62
2022/10/06 10:21:48;;;;;;;;;;;;;;;21.12;40.36;101213.63;4956587;29;20363;-62
2022/10/06 10:24:18;;;;;;;;;;;;;;;21.24;40.31;101230.81;4956598;29;19922;-61
2022/10/06 10:27:03;;;;;;;;;;;;;;;21.03;40.64;101220.31;4957433;29;19925;-63
2022/10/06 10:29:42;;;;;;;;;;;;;;;20.60;42.02;101225.16;4957023;28;19914;-62
2022/10/06 10:32:20;;;;;;;;;;;;;;;21.08;41.80;101228.09;4957832;29;19969;-63
2022/10/06 10:35:04;;;;;;;;;;;;;;;21.46;41.83;101231.41;4957332;28;19946;-62
2022/10/06 10:37:32;;;;;;;;;;;;;;;21.44;41.46;101237.81;4957504;29;19958;-62
2022/10/06 10:40:00;;;;;;;;;;;;;;;21.86;40.78;101226.56;4956224;29;20314;-63
2022/10/06 10:42:30;;;;;;;;;;;;;;;21.90;40.19;101230.81;4960165;28;20017;-62
2022/10/06 10:44:59;;;;;;;;;;;;;;;21.64;39.76;101259.00;4976317;28;20056;-62
2022/10/06 10:47:28;;;;;;;;;;;;;;;21.38;40.09;101255.91;4976453;28;19914;-62
2022/10/06 10:50:13;;;;;;;;;;;;;;;21.74;39.89;101244.16;4976612;28;19922;-62
2022/10/06 10:52:40;;;;;;;;;;;;;;;21.53;40.28;101235.50;4976493;28;19914;-62
2022/10/06 10:55:16;;;;;;;;;;;;;;;21.17;40.87;101255.19;4976444;28;20381;-62
2022/10/06 10:57:43;;;;;;;;;;;;;;;21.06;41.41;101241.50;4971479;28;19965;-61
2022/10/06 11:00:24;;;;;;;;;;;;;;;21.48;40.59;101255.41;4971394;28;19930;-62
2022/10/06 11:02:54;;;;;;;;;;;;;;;21.20;40.76;101275.53;4964814;28;20396;-62
2022/10/06 11:05:29;;;;;;;;;;;;;;;21.37;40.31;101259.50;4974079;28;19925;-62
2022/10/06 11:08:04;;;;;;;;;;;;;;;21.14;40.70;101266.06;4975629;28;20285;-62
2022/10/06 11:10:52;;;;;;;;;;;;;;;21.32;40.67;101277.59;4975720;28;20409;-62
2022/10/06 11:13:27;;;;;;;;;;;;;;;21.52;39.53;101281.03;4970504;28;20388;-62
2022/10/06 11:16:11;;;;;;;;;;;;;;;21.30;39.95;101284.78;4976047;28;19914;-62
2022/10/06 11:18:37;;;;;;;;;;;;;;;21.21;40.33;101287.94;4975963;28;19914;-63
2022/10/06 11:21:11;;;;;;;;;;;;;;;20.87;40.71;101297.69;4975728;28;19914;-62
2022/10/06 11:23:48;;;;;;;;;;;;;;;20.74;41.03;101301.91;4976038;28;19949;-62
2022/10/06 11:26:13;;;;;;;;;;;;;;;21.08;40.36;101317.13;4975849;28;19914;-61
2022/10/06 11:28:52;;;;;;;;;;;;;;;21.09;40.16;101320.66;4974179;28;19924;-62
2022/10/06 11:31:28;;;;;;;;;;;;;;;21.03;40.47;101308.47;4975568;28;20382;-63
2022/10/06 11:33:58;;;;;;;;;;;;;;;21.19;40.06;101295.19;4975704;28;19914;-63
2022/10/06 11:36:23;;;;;;;;;;;;;;;21.10;40.19;101323.22;4975587;28;19961;-62
2022/10/06 11:38:55;;;;;;;;;;;;;;;21.27;39.89;101309.03;4975658;28;19914;-63
2022/10/06 11:41:23;;;;;;;;;;;;;;;21.39;39.10;101315.59;4975556;28;19918;-63
2022/10/06 11:44:02;;;;;;;;;;;;;;;21.20;37.98;101328.13;4974847;28;19922;-62
2022/10/06 11:46:31;;;;;;;;;;;;;;;21.32;38.73;101315.03;4975643;28;19914;-63
2022/10/06 11:49:15;;;;;;;;;;;;;;;21.50;38.57;101309.66;4975422;28;19921;-62
2022/10/06 11:51:41;;;;;;;;;;;;;;;21.34;38.48;101321.16;4975256;28;19926;-62
2022/10/06 11:54:26;;;;;;;;;;;;;;;21.20;39.43;101328.13;4975177;28;19926;-62
2022/10/06 11:56:52;;;;;;;;;;;;;;;21.18;38.42;101330.84;4975744;28;19960;-61
2022/10/06 11:59:27;;;;;;;;;;;;;;;20.65;39.19;101329.91;4975403;28;19949;-61
2022/10/06 12:01:53;;;;;;;;;;;;;;;20.60;39.35;101334.63;4971357;28;19918;-62
2022/10/06 12:04:19;;;;;;;;;;;;;;;20.69;39.46;101362.69;4973586;28;19928;-64
2022/10/06 12:06:44;;;;;;;;;;;;;;;20.32;40.44;101350.19;4961597;28;20428;-61
2022/10/06 12:09:25;;;;;;;;;;;;;;;20.13;40.68;101340.38;4972598;28;19926;-62
2022/10/06 12:11:54;;;;;;;;;;;;;;;20.24;41.03;101352.38;4974483;28;19957;-62
2022/10/06 12:14:20;;;;;;;;;;;;;;;20.48;40.76;101343.19;4973358;28;19977;-62
2022/10/06 12:16:46;;;;;;;;;;;;;;;20.45;40.38;101343.34;4974433;28;19918;-62
2022/10/06 12:19:15;;;;;;;;;;;;;;;20.12;40.34;101357.31;4973948;28;19920;-63
2022/10/06 12:21:51;;;;;;;;;;;;;;;20.79;39.02;101344.44;4966457;28;19976;-62
2022/10/06 12:24:36;;;;;;;;;;;;;;;20.89;38.88;101353.69;4963148;28;19969;-63
2022/10/06 12:27:14;;;;;;;;;;;;;;;20.87;38.62;101359.13;4973173;28;19917;-63
2022/10/06 12:29:47;;;;;;;;;;;;;;;21.12;37.62;101364.13;4969492;28;19924;-63
2022/10/06 12:32:16;;;;;;;;;;;;;;;21.26;37.51;101358.06;4973875;28;19929;-63
2022/10/06 12:34:53;;;;;;;;;;;;;;;21.12;37.37;101363.25;4973876;28;19926;-63
2022/10/06 12:37:38;;;;;;;;;;;;;;;21.19;38.15;101362.00;4973773;28;19949;-62
2022/10/06 12:40:22;;;;;;;;;;;;;;;21.17;37.98;101371.91;4971017;28;19957;-61
2022/10/06 12:42:47;;;;;;;;;;;;;;;21.81;37.60;101367.75;4974737;28;19990;-63
2022/10/06 12:45:15;;;;;;;;;;;;;;;21.77;37.36;101360.81;4971881;28;19922;-62
2022/10/06 12:47:45;;;;;;;;;;;;;;;22.27;36.79;101376.88;4977096;28;19914;-63
2022/10/06 12:50:21;;;;;;;;;;;;;;;22.28;37.21;101386.63;4973161;28;19937;-62
2022/10/06 12:52:52;;;;;;;;;;;;;;;21.72;36.38;101379.78;4973826;28;19914;-63
2022/10/06 12:55:50;;;;;;;;;;;;;;;21.20;36.80;101387.78;4975049;28;19954;-62
2022/10/06 12:58:19;;;;;;;;;;;;;;;20.81;37.44;101386.13;4966746;28;19969;-63